createdAt,value
2016-12-07T00:00:47.074Z,98.14
2016-12-07T00:01:47.398Z,98.61
2016-12-07T00:02:47.393Z,98.52
2016-12-07T00:03:47.389Z,98.24
2016-12-07T00:04:47.385Z,98.9
2016-12-07T00:05:47.381Z,98.9
2016-12-07T00:06:47.381Z,99.08
2016-12-07T00:07:47.373Z,99.18
2016-12-07T00:08:47.393Z,98.99
2016-12-07T00:09:47.365Z,98.99
2016-12-07T00:10:47.356Z,99.08
2016-12-07T00:11:47.352Z,98.9
2016-12-07T00:12:47.352Z,98.99
2016-12-07T00:13:47.344Z,99.18
2016-12-07T00:14:47.340Z,99.18
2016-12-07T00:15:47.337Z,99.37
2016-12-07T00:16:47.329Z,99.08
2016-12-07T00:17:47.329Z,99.27
2016-12-07T00:18:46.997Z,99.18
2016-12-07T00:19:46.993Z,99.18
2016-12-07T00:20:47.314Z,99.27
2016-12-07T00:21:47.310Z,99.08
2016-12-07T00:22:46.981Z,99.08
2016-12-07T00:23:47.302Z,99.13
2016-12-07T00:24:47.298Z,98.99
2016-12-07T00:25:47.290Z,99.13
2016-12-07T00:26:47.291Z,99.18
2016-12-07T00:27:47.283Z,98.75
2016-12-07T00:28:47.279Z,99.18
2016-12-07T00:29:47.275Z,98.94
2016-12-07T00:30:46.947Z,98.94
2016-12-07T00:31:47.267Z,99.08
2016-12-07T00:32:47.263Z,98.24
2016-12-07T00:33:47.260Z,98.33
2016-12-07T00:34:47.252Z,98.66
2016-12-07T00:35:47.248Z,98.47
2016-12-07T00:36:46.920Z,98.28
2016-12-07T00:37:47.244Z,98.1
2016-12-07T00:38:47.236Z,97.91
2016-12-07T00:39:47.233Z,98.28
2016-12-07T00:40:46.905Z,98.28
2016-12-07T00:41:47.225Z,98.47
2016-12-07T00:42:47.217Z,98
2016-12-07T00:43:47.213Z,98.28
2016-12-07T00:44:47.209Z,98.57
2016-12-07T00:45:47.209Z,97.91
2016-12-07T00:46:47.201Z,97.81
2016-12-07T00:47:47.198Z,97.62
2016-12-07T00:48:47.194Z,97.81
2016-12-07T00:49:47.194Z,97.53
2016-12-07T00:50:47.186Z,97.91
2016-12-07T00:51:47.179Z,97.72
2016-12-07T00:52:47.174Z,98.19
2016-12-07T00:53:47.171Z,97.53
2016-12-07T00:54:47.167Z,97.34
2016-12-07T00:55:47.164Z,97.34
2016-12-07T00:56:47.160Z,97.34
2016-12-07T00:57:46.832Z,97.43
2016-12-07T00:58:47.152Z,97.43
2016-12-07T00:59:47.149Z,96.86
2016-12-07T01:00:47.141Z,96.68
2016-12-07T01:01:47.137Z,96.68
2016-12-07T01:02:47.133Z,96.68
2016-12-07T01:03:47.130Z,97.05
2016-12-07T01:04:47.130Z,97.05
2016-12-07T01:05:47.122Z,96.96
2016-12-07T01:06:47.118Z,96.72
2016-12-07T01:07:46.791Z,96.25
2016-12-07T01:08:47.107Z,96.68
2016-12-07T01:09:47.103Z,96.72
2016-12-07T01:10:47.099Z,97
2016-12-07T01:11:47.096Z,96.91
2016-12-07T01:12:47.092Z,97
2016-12-07T01:13:47.088Z,96.81
2016-12-07T01:14:47.084Z,97.1
2016-12-07T01:15:47.080Z,96.72
2016-12-07T01:16:47.077Z,96.53
2016-12-07T01:17:47.068Z,96.53
2016-12-07T01:18:47.065Z,96.44
2016-12-07T01:19:46.737Z,96.63
2016-12-07T01:20:47.058Z,96.53
2016-12-07T01:21:47.081Z,96.53
2016-12-07T01:22:47.050Z,96.53
2016-12-07T01:23:47.042Z,96.53
2016-12-07T01:24:47.038Z,96.44
2016-12-07T01:25:47.035Z,96.81
2016-12-07T01:26:47.030Z,96.91
2016-12-07T01:27:47.027Z,97.1
2016-12-07T01:28:47.023Z,96.53
2016-12-07T01:29:47.019Z,96.81
2016-12-07T01:30:47.011Z,96.72
2016-12-07T01:31:47.008Z,96.63
2016-12-07T01:32:47.004Z,96.72
2016-12-07T01:33:47.000Z,96.72
2016-12-07T01:34:46.996Z,96.72
2016-12-07T01:35:46.995Z,96.63
2016-12-07T01:36:46.984Z,96.72
2016-12-07T01:37:47.009Z,96.72
2016-12-07T01:38:46.977Z,96.72
2016-12-07T01:39:46.973Z,97
2016-12-07T01:40:46.969Z,96.91
2016-12-07T01:41:46.966Z,97
2016-12-07T01:42:46.965Z,96.72
2016-12-07T01:43:46.642Z,96.63
2016-12-07T01:44:46.954Z,96.53
2016-12-07T01:45:46.946Z,96.44
2016-12-07T01:46:46.941Z,96.63
2016-12-07T01:47:46.941Z,96.81
2016-12-07T01:48:46.937Z,96.81
2016-12-07T01:49:46.929Z,96.15
2016-12-07T01:50:46.925Z,96.06
2016-12-07T01:51:46.589Z,95.97
2016-12-07T01:52:46.916Z,96.06
2016-12-07T01:53:46.908Z,96.34
2016-12-07T01:54:46.904Z,96.53
2016-12-07T01:55:46.896Z,96.44
2016-12-07T01:56:46.920Z,96.44
2016-12-07T01:57:46.564Z,96.72
2016-12-07T01:58:46.884Z,96.91
2016-12-07T01:59:46.880Z,95.87
2016-12-07T02:00:46.876Z,96.25
2016-12-07T02:01:46.868Z,95.97
2016-12-07T02:02:46.864Z,96.06
2016-12-07T02:03:46.860Z,95.59
2016-12-07T02:04:46.858Z,95.64
2016-12-07T02:05:46.851Z,95.54
2016-12-07T02:06:46.843Z,95.97
2016-12-07T02:07:46.839Z,95.64
2016-12-07T02:08:46.835Z,95.54
2016-12-07T02:09:46.831Z,95.83
2016-12-07T02:10:46.827Z,95.73
2016-12-07T02:11:46.827Z,95.26
2016-12-07T02:12:46.815Z,95.64
2016-12-07T02:13:46.811Z,95.45
2016-12-07T02:14:46.807Z,95.64
2016-12-07T02:15:46.479Z,95.45
2016-12-07T02:16:46.799Z,95.64
2016-12-07T02:17:46.792Z,95.64
2016-12-07T02:18:46.787Z,95.64
2016-12-07T02:19:46.783Z,95.54
2016-12-07T02:20:46.779Z,95.64
2016-12-07T02:21:46.775Z,95.83
2016-12-07T02:22:46.771Z,96.01
2016-12-07T02:23:46.763Z,95.92
2016-12-07T02:24:46.760Z,95.83
2016-12-07T02:25:46.783Z,95.54
2016-12-07T02:26:46.756Z,95.45
2016-12-07T02:27:46.748Z,95.26
2016-12-07T02:28:46.748Z,96.01
2016-12-07T02:29:46.408Z,96.11
2016-12-07T02:30:46.737Z,95.64
2016-12-07T02:31:46.724Z,95.45
2016-12-07T02:32:46.720Z,95.64
2016-12-07T02:33:46.720Z,95.73
2016-12-07T02:34:46.712Z,95.92
2016-12-07T02:35:46.709Z,95.54
2016-12-07T02:36:46.704Z,95.54
2016-12-07T02:37:46.697Z,95.26
2016-12-07T02:38:46.693Z,95.64
2016-12-07T02:39:46.689Z,95.64
2016-12-07T02:40:46.685Z,95.54
2016-12-07T02:41:46.686Z,95.45
2016-12-07T02:42:46.673Z,95.73
2016-12-07T02:43:46.670Z,95.45
2016-12-07T02:44:46.666Z,95.54
2016-12-07T02:45:46.662Z,95.54
2016-12-07T02:46:46.658Z,95.54
2016-12-07T02:47:46.650Z,95.64
2016-12-07T02:48:46.646Z,95.64
2016-12-07T02:49:46.642Z,95.54
2016-12-07T02:50:46.638Z,95.64
2016-12-07T02:51:46.634Z,95.54
2016-12-07T02:52:46.627Z,95.83
2016-12-07T02:53:46.623Z,95.54
2016-12-07T02:54:46.623Z,95.64
2016-12-07T02:55:46.615Z,95.64
2016-12-07T02:56:46.287Z,95.92
2016-12-07T02:57:46.275Z,95.83
2016-12-07T02:58:46.599Z,95.73
2016-12-07T02:59:46.595Z,95.83
2016-12-07T03:00:46.588Z,95.64
2016-12-07T03:01:46.259Z,95.83
2016-12-07T03:02:46.579Z,95.64
2016-12-07T03:03:46.576Z,95.64
2016-12-07T03:04:46.571Z,96.01
2016-12-07T03:05:46.564Z,95.54
2016-12-07T03:06:46.560Z,95.54
2016-12-07T03:07:46.556Z,95.26
2016-12-07T03:08:46.376Z,95.26
2016-12-07T03:09:46.552Z,95.07
2016-12-07T03:10:46.541Z,95.45
2016-12-07T03:11:46.555Z,95.17
2016-12-07T03:12:46.205Z,94.98
2016-12-07T03:13:46.529Z,94.79
2016-12-07T03:14:46.521Z,94.98
2016-12-07T03:15:46.521Z,95.07
2016-12-07T03:16:46.517Z,95.07
2016-12-07T03:17:46.513Z,95.07
2016-12-07T03:18:46.501Z,94.98
2016-12-07T03:19:46.497Z,95.07
2016-12-07T03:20:46.497Z,94.79
2016-12-07T03:21:46.490Z,94.98
2016-12-07T03:22:46.483Z,94.41
2016-12-07T03:23:46.478Z,94.79
2016-12-07T03:24:46.474Z,94.79
2016-12-07T03:25:46.470Z,94.51
2016-12-07T03:26:46.462Z,94.41
2016-12-07T03:27:46.458Z,94.69
2016-12-07T03:28:46.454Z,94.6
2016-12-07T03:29:46.459Z,94.6
2016-12-07T03:30:46.118Z,94.51
2016-12-07T03:31:46.111Z,94.41
2016-12-07T03:32:46.435Z,94.6
2016-12-07T03:33:46.427Z,94.69
2016-12-07T03:34:46.427Z,94.41
2016-12-07T03:35:46.427Z,94.6
2016-12-07T03:36:46.415Z,94.69
2016-12-07T03:37:46.407Z,94.51
2016-12-07T03:38:46.079Z,94.69
2016-12-07T03:39:46.399Z,94.88
2016-12-07T03:40:46.395Z,94.6
2016-12-07T03:41:46.388Z,94.98
2016-12-07T03:42:46.384Z,94.88
2016-12-07T03:43:46.380Z,95.26
2016-12-07T03:44:46.376Z,95.17
2016-12-07T03:45:46.368Z,95.26
2016-12-07T03:46:46.364Z,95.73
2016-12-07T03:47:46.363Z,95.64
2016-12-07T03:48:46.356Z,95.26
2016-12-07T03:49:46.348Z,95.83
2016-12-07T03:50:46.344Z,96.11
2016-12-07T03:51:46.016Z,96.11
2016-12-07T03:52:46.345Z,96.34
2016-12-07T03:53:46.328Z,96.53
2016-12-07T03:54:46.325Z,96.34
2016-12-07T03:55:46.321Z,96.72
2016-12-07T03:56:46.317Z,96.81
2016-12-07T03:57:46.309Z,97
2016-12-07T03:58:46.309Z,96.63
2016-12-07T03:59:46.301Z,96.72
2016-12-07T04:00:46.298Z,96.53
2016-12-07T04:01:46.289Z,96.15
2016-12-07T04:02:45.961Z,95.78
2016-12-07T04:03:46.281Z,95.97
2016-12-07T04:04:46.273Z,95.59
2016-12-07T04:05:46.273Z,95.59
2016-12-07T04:06:46.265Z,95.68
2016-12-07T04:07:46.262Z,95.78
2016-12-07T04:08:46.254Z,95.59
2016-12-07T04:09:46.249Z,95.68
2016-12-07T04:10:46.246Z,95.78
2016-12-07T04:11:46.242Z,95.87
2016-12-07T04:12:46.238Z,95.59
2016-12-07T04:13:46.230Z,95.68
2016-12-07T04:14:46.226Z,95.68
2016-12-07T04:15:46.222Z,95.68
2016-12-07T04:16:46.218Z,95.68
2016-12-07T04:17:46.210Z,95.68
2016-12-07T04:18:46.206Z,95.68
2016-12-07T04:19:46.202Z,95.68
2016-12-07T04:20:46.198Z,95.97
2016-12-07T04:21:46.190Z,96.06
2016-12-07T04:22:45.863Z,96.81
2016-12-07T04:23:46.183Z,96.63
2016-12-07T04:24:46.175Z,96.72
2016-12-07T04:25:46.175Z,96.72
2016-12-07T04:26:46.167Z,96.72
2016-12-07T04:27:46.195Z,96.44
2016-12-07T04:28:46.155Z,96.53
2016-12-07T04:29:46.151Z,96.72
2016-12-07T04:30:46.147Z,96.53
2016-12-07T04:31:46.143Z,96.53
2016-12-07T04:32:45.811Z,96.44
2016-12-07T04:33:46.136Z,96.44
2016-12-07T04:34:46.127Z,96.63
2016-12-07T04:35:46.119Z,96.72
2016-12-07T04:36:46.115Z,96.49
2016-12-07T04:37:45.788Z,96.72
2016-12-07T04:38:46.108Z,97
2016-12-07T04:39:45.776Z,96.91
2016-12-07T04:40:46.096Z,96.34
2016-12-07T04:41:45.768Z,96.63
2016-12-07T04:42:46.088Z,96.77
2016-12-07T04:43:46.083Z,96.63
2016-12-07T04:44:45.748Z,97.1
2016-12-07T04:45:45.748Z,96.91
2016-12-07T04:46:46.069Z,96.91
2016-12-07T04:47:46.060Z,96.96
2016-12-07T04:48:46.060Z,96.96
2016-12-07T04:49:46.056Z,97.05
2016-12-07T04:50:46.048Z,96.96
2016-12-07T04:51:46.072Z,96.86
2016-12-07T04:52:46.036Z,96.96
2016-12-07T04:53:46.060Z,96.86
2016-12-07T04:54:45.704Z,96.77
2016-12-07T04:55:46.020Z,97.81
2016-12-07T04:56:46.016Z,96.58
2016-12-07T04:57:46.012Z,96.77
2016-12-07T04:58:46.008Z,96.68
2016-12-07T04:59:46.004Z,96.68
2016-12-07T05:00:45.674Z,96.68
2016-12-07T05:01:45.992Z,96.77
2016-12-07T05:02:45.988Z,96.96
2016-12-07T05:03:45.984Z,96.86
2016-12-07T05:04:45.976Z,96.68
2016-12-07T05:05:45.976Z,96.86
2016-12-07T05:06:45.969Z,97.62
2016-12-07T05:07:45.961Z,97.53
2016-12-07T05:08:45.956Z,97.34
2016-12-07T05:09:45.952Z,97.24
2016-12-07T05:10:45.949Z,97.72
2016-12-07T05:11:45.940Z,97.72
2016-12-07T05:12:45.612Z,97.91
2016-12-07T05:13:45.609Z,97.62
2016-12-07T05:14:45.928Z,97.81
2016-12-07T05:15:45.933Z,97.53
2016-12-07T05:16:45.916Z,97.53
2016-12-07T05:17:45.912Z,97.72
2016-12-07T05:18:45.908Z,97.81
2016-12-07T05:19:45.900Z,98.19
2016-12-07T05:20:45.896Z,98.75
2016-12-07T05:21:45.899Z,98.38
2016-12-07T05:22:45.891Z,98.47
2016-12-07T05:23:45.880Z,98.47
2016-12-07T05:24:45.876Z,98.28
2016-12-07T05:25:45.876Z,98.28
2016-12-07T05:26:45.867Z,98.28
2016-12-07T05:27:45.862Z,98.1
2016-12-07T05:28:45.856Z,98.14
2016-12-07T05:29:45.860Z,98.05
2016-12-07T05:30:45.848Z,98.71
2016-12-07T05:31:45.844Z,98.43
2016-12-07T05:32:45.835Z,98.71
2016-12-07T05:33:45.835Z,98.61
2016-12-07T05:34:45.500Z,98.52
2016-12-07T05:35:45.823Z,98.9
2016-12-07T05:36:45.820Z,98.33
2016-12-07T05:37:45.813Z,98.05
2016-12-07T05:38:45.484Z,98.24
2016-12-07T05:39:45.803Z,98.14
2016-12-07T05:40:45.800Z,98.14
2016-12-07T05:41:45.468Z,98.24
2016-12-07T05:42:45.787Z,98.43
2016-12-07T05:43:45.788Z,98.05
2016-12-07T05:44:45.780Z,98.05
2016-12-07T05:45:45.771Z,98.05
2016-12-07T05:46:45.778Z,98.14
2016-12-07T05:47:45.764Z,98.43
2016-12-07T05:48:45.760Z,98.14
2016-12-07T05:49:45.756Z,98.43
2016-12-07T05:50:45.760Z,98.52
2016-12-07T05:51:45.744Z,98.14
2016-12-07T05:52:45.740Z,98.24
2016-12-07T05:53:45.738Z,98.24
2016-12-07T05:54:45.736Z,98.9
2016-12-07T05:55:45.728Z,98.99
2016-12-07T05:56:45.396Z,99.08
2016-12-07T05:57:45.716Z,99.18
2016-12-07T05:58:45.712Z,98.9
2016-12-07T05:59:45.712Z,98.9
2016-12-07T06:00:45.700Z,99.08
2016-12-07T06:01:45.408Z,99.27
2016-12-07T06:02:45.368Z,99.08
2016-12-07T06:03:45.687Z,98.24
2016-12-07T06:04:45.684Z,98.71
2016-12-07T06:05:45.684Z,98.14
2016-12-07T06:06:45.680Z,98.52
2016-12-07T06:07:45.668Z,98.71
2016-12-07T06:08:45.340Z,98.24
2016-12-07T06:09:45.659Z,98.9
2016-12-07T06:10:45.652Z,99.08
2016-12-07T06:11:45.648Z,98.99
2016-12-07T06:12:45.643Z,98.99
2016-12-07T06:13:45.643Z,98.99
2016-12-07T06:14:45.636Z,99.08
2016-12-07T06:15:45.631Z,98.9
2016-12-07T06:16:45.624Z,98.9
2016-12-07T06:17:45.619Z,98.9
2016-12-07T06:18:45.615Z,99.18
2016-12-07T06:19:45.287Z,99.37
2016-12-07T06:20:45.607Z,99.18
2016-12-07T06:21:45.627Z,99.08
2016-12-07T06:22:45.595Z,99.08
2016-12-07T06:23:45.591Z,99.08
2016-12-07T06:24:45.587Z,98.9
2016-12-07T06:25:45.583Z,99.08
2016-12-07T06:26:45.575Z,99.08
2016-12-07T06:27:45.575Z,99.08
2016-12-07T06:28:45.567Z,98.9
2016-12-07T06:29:45.563Z,99.08
2016-12-07T06:30:45.559Z,98.8
2016-12-07T06:31:45.555Z,99.75
2016-12-07T06:32:45.547Z,99.37
2016-12-07T06:33:45.543Z,99.37
2016-12-07T06:34:45.539Z,98.8
2016-12-07T06:35:45.535Z,99.08
2016-12-07T06:36:45.203Z,99.27
2016-12-07T06:37:45.522Z,98.99
2016-12-07T06:38:45.518Z,99.08
2016-12-07T06:39:45.514Z,98.9
2016-12-07T06:40:45.506Z,98.99
2016-12-07T06:41:45.178Z,98.8
2016-12-07T06:42:45.499Z,98.9
2016-12-07T06:43:45.495Z,99.18
2016-12-07T06:44:45.490Z,99.27
2016-12-07T06:45:45.482Z,99.65
2016-12-07T06:46:45.483Z,99.18
2016-12-07T06:47:45.474Z,99.46
2016-12-07T06:48:45.147Z,99.27
2016-12-07T06:49:45.467Z,98.61
2016-12-07T06:50:45.458Z,99.65
2016-12-07T06:51:45.459Z,99.18
2016-12-07T06:52:45.450Z,99.56
2016-12-07T06:53:45.447Z,99.56
2016-12-07T06:54:45.438Z,99.46
2016-12-07T06:55:45.434Z,99.27
2016-12-07T06:56:45.430Z,99.46
2016-12-07T06:57:45.426Z,99.27
2016-12-07T06:58:45.418Z,99.18
2016-12-07T06:59:45.414Z,99.56
2016-12-07T07:00:45.411Z,98.71
2016-12-07T07:01:45.406Z,98.99
2016-12-07T07:02:45.403Z,99.33
2016-12-07T07:03:45.398Z,99.23
2016-12-07T07:04:45.391Z,99.42
2016-12-07T07:05:45.386Z,99.23
2016-12-07T07:06:45.382Z,99.42
2016-12-07T07:07:45.379Z,99.42
2016-12-07T07:08:45.370Z,99.33
2016-12-07T07:09:45.371Z,98.95
2016-12-07T07:10:45.362Z,99.42
2016-12-07T07:11:45.366Z,99.42
2016-12-07T07:12:45.354Z,99.52
2016-12-07T07:13:45.024Z,99.61
2016-12-07T07:14:45.542Z,99.42
2016-12-07T07:15:45.338Z,99.33
2016-12-07T07:16:45.010Z,99.33
2016-12-07T07:17:45.327Z,99.61
2016-12-07T07:18:45.324Z,99.33
2016-12-07T07:19:45.319Z,99.42
2016-12-07T07:20:45.315Z,99.42
2016-12-07T07:21:45.311Z,99.04
2016-12-07T07:22:45.303Z,99.33
2016-12-07T07:23:45.299Z,99.04
2016-12-07T07:24:45.123Z,99.14
2016-12-07T07:25:45.291Z,99.14
2016-12-07T07:26:45.286Z,99.04
2016-12-07T07:27:45.283Z,99.23
2016-12-07T07:28:45.275Z,99.42
2016-12-07T07:29:45.271Z,99.52
2016-12-07T07:30:45.267Z,99.42
2016-12-07T07:31:45.263Z,99.23
2016-12-07T07:32:45.263Z,99.33
2016-12-07T07:33:45.259Z,99.52
2016-12-07T07:34:45.247Z,99.04
2016-12-07T07:35:45.243Z,99.61
2016-12-07T07:36:45.239Z,99.14
2016-12-07T07:37:45.235Z,99.42
2016-12-07T07:38:45.231Z,99.42
2016-12-07T07:39:45.224Z,99.42
2016-12-07T07:40:45.220Z,99.52
2016-12-07T07:41:45.219Z,99.33
2016-12-07T07:42:45.211Z,99.42
2016-12-07T07:43:45.207Z,99.14
2016-12-07T07:44:45.203Z,99.04
2016-12-07T07:45:45.196Z,99.52
2016-12-07T07:46:45.192Z,99.19
2016-12-07T07:47:45.187Z,99.47
2016-12-07T07:48:45.184Z,99.66
2016-12-07T07:49:44.856Z,99.09
2016-12-07T07:50:44.852Z,99.09
2016-12-07T07:51:45.172Z,99.28
2016-12-07T07:52:45.196Z,99.09
2016-12-07T07:53:45.160Z,99.19
2016-12-07T07:54:45.156Z,98.62
2016-12-07T07:55:45.156Z,98.52
2016-12-07T07:56:45.148Z,98.24
2016-12-07T07:57:45.144Z,98.24
2016-12-07T07:58:45.140Z,98.43
2016-12-07T07:59:45.136Z,98.24
2016-12-07T08:00:45.128Z,98.43
2016-12-07T08:01:45.156Z,98.33
2016-12-07T08:02:45.120Z,98.62
2016-12-07T08:03:44.792Z,98.43
2016-12-07T08:04:45.261Z,98.43
2016-12-07T08:05:45.112Z,98.05
2016-12-07T08:06:44.781Z,98.14
2016-12-07T08:07:45.097Z,98.62
2016-12-07T08:08:45.093Z,98.14
2016-12-07T08:09:45.390Z,98.43
2016-12-07T08:10:45.084Z,98.24
2016-12-07T08:11:45.081Z,97.77
2016-12-07T08:12:45.081Z,98.52
2016-12-07T08:13:45.073Z,97.77
2016-12-07T08:14:45.070Z,97.67
2016-12-07T08:15:45.061Z,97.96
2016-12-07T08:16:45.060Z,97.77
2016-12-07T08:17:45.053Z,97.86
2016-12-07T08:18:45.054Z,97.86
2016-12-07T08:19:45.049Z,97.49
2016-12-07T08:20:45.045Z,97.49
2016-12-07T08:21:45.037Z,97.96
2016-12-07T08:22:45.037Z,97.49
2016-12-07T08:23:44.705Z,97.53
2016-12-07T08:24:45.025Z,97.53
2016-12-07T08:25:45.021Z,97.91
2016-12-07T08:26:45.013Z,96.78
2016-12-07T08:27:45.010Z,96.31
2016-12-07T08:28:45.005Z,96.4
2016-12-07T08:29:45.002Z,96.12
2016-12-07T08:30:44.998Z,95.45
2016-12-07T08:31:44.994Z,95.07
2016-12-07T08:32:44.989Z,94.98
2016-12-07T08:33:44.986Z,94.04
2016-12-07T08:34:44.981Z,94.23
2016-12-07T08:35:44.979Z,94.08
2016-12-07T08:36:44.650Z,94.46
2016-12-07T08:37:44.966Z,94.08
2016-12-07T08:38:44.638Z,94.08
2016-12-07T08:39:44.966Z,94.65
2016-12-07T08:40:44.953Z,93.94
2016-12-07T08:41:44.954Z,94.23
2016-12-07T08:42:44.622Z,93.85
2016-12-07T08:43:44.626Z,94.04
2016-12-07T08:44:44.938Z,93.66
2016-12-07T08:45:44.934Z,93.28
2016-12-07T08:46:44.930Z,92.52
2016-12-07T08:47:44.926Z,92.52
2016-12-07T08:48:44.922Z,92.52
2016-12-07T08:49:44.918Z,92.43
2016-12-07T08:50:44.591Z,92.14
2016-12-07T08:51:44.910Z,92.14
2016-12-07T08:52:44.906Z,91.86
2016-12-07T08:53:44.902Z,90.91
2016-12-07T08:54:44.899Z,91.1
2016-12-07T08:55:44.895Z,91.29
2016-12-07T08:56:44.891Z,90.91
2016-12-07T08:57:44.891Z,89.87
2016-12-07T08:58:44.887Z,89.4
2016-12-07T08:59:44.879Z,89.36
2016-12-07T09:00:44.875Z,89.45
2016-12-07T09:01:44.875Z,89.54
2016-12-07T09:02:44.871Z,89.26
2016-12-07T09:03:44.868Z,89.45
2016-12-07T09:04:44.859Z,89.17
2016-12-07T09:05:44.855Z,89.07
2016-12-07T09:06:44.851Z,89.36
2016-12-07T09:07:44.847Z,89.54
2016-12-07T09:08:44.519Z,89.45
2016-12-07T09:09:44.839Z,89.21
2016-12-07T09:10:44.835Z,89.12
2016-12-07T09:11:44.831Z,89.5
2016-12-07T09:12:44.827Z,89.31
2016-12-07T09:13:44.823Z,89.21
2016-12-07T09:14:44.827Z,89.4
2016-12-07T09:15:44.816Z,89.4
2016-12-07T09:16:44.488Z,89.31
2016-12-07T09:17:44.808Z,88.64
2016-12-07T09:18:44.480Z,88.87
2016-12-07T09:19:44.804Z,88.59
2016-12-07T09:20:44.796Z,88.12
2016-12-07T09:21:44.796Z,88.02
2016-12-07T09:22:44.464Z,88.31
2016-12-07T09:23:44.784Z,88.02
2016-12-07T09:24:44.788Z,88.12
2016-12-07T09:25:44.452Z,88.02
2016-12-07T09:26:44.448Z,87.46
2016-12-07T09:27:44.768Z,87.55
2016-12-07T09:28:44.440Z,87.65
2016-12-07T09:29:44.760Z,87.69
2016-12-07T09:30:44.760Z,87.21
2016-12-07T09:31:44.760Z,87.02
2016-12-07T09:32:44.748Z,87.21
2016-12-07T09:33:44.744Z,86.83
2016-12-07T09:34:44.740Z,86.46
2016-12-07T09:35:44.737Z,86.55
2016-12-07T09:36:44.733Z,86.18
2016-12-07T09:37:44.729Z,85.99
2016-12-07T09:38:44.729Z,85.51
2016-12-07T09:39:44.721Z,85.8
2016-12-07T09:40:44.720Z,85.84
2016-12-07T09:41:44.717Z,85.32
2016-12-07T09:42:44.389Z,85.17
2016-12-07T09:43:44.709Z,84.89
2016-12-07T09:44:44.709Z,85.17
2016-12-07T09:45:44.701Z,84.89
2016-12-07T09:46:44.697Z,84.89
2016-12-07T09:47:44.693Z,84.32
2016-12-07T09:48:44.689Z,84.32
2016-12-07T09:49:44.685Z,84.42
2016-12-07T09:50:44.681Z,84.32
2016-12-07T09:51:44.681Z,84.23
2016-12-07T09:52:44.673Z,84.32
2016-12-07T09:53:44.341Z,84
2016-12-07T09:54:44.665Z,84.23
2016-12-07T09:55:44.661Z,84.23
2016-12-07T09:56:44.661Z,84
2016-12-07T09:57:44.657Z,83.81
2016-12-07T09:58:44.653Z,83.43
2016-12-07T09:59:44.849Z,83.9
2016-12-07T10:00:44.646Z,84.28
2016-12-07T10:01:44.646Z,84.38
2016-12-07T10:02:44.314Z,84.19
2016-12-07T10:03:44.634Z,84.09
2016-12-07T10:04:44.634Z,84
2016-12-07T10:05:44.626Z,83.94
2016-12-07T10:06:44.622Z,83.85
2016-12-07T10:07:44.622Z,83.66
2016-12-07T10:08:44.638Z,83.75
2016-12-07T10:09:44.614Z,83.09
2016-12-07T10:10:44.610Z,83.28
2016-12-07T10:11:44.610Z,83.09
2016-12-07T10:12:44.278Z,83.09
2016-12-07T10:13:44.598Z,82.81
2016-12-07T10:14:44.598Z,82.62
2016-12-07T10:15:44.590Z,82.71
2016-12-07T10:16:44.262Z,82.81
2016-12-07T10:17:44.584Z,82.52
2016-12-07T10:18:44.586Z,81.95
2016-12-07T10:19:44.579Z,82.14
2016-12-07T10:20:44.250Z,82.33
2016-12-07T10:21:44.575Z,82.14
2016-12-07T10:22:44.567Z,81.67
2016-12-07T10:23:44.563Z,81.76
2016-12-07T10:24:44.559Z,81.38
2016-12-07T10:25:44.555Z,81.29
2016-12-07T10:26:44.555Z,80.72
2016-12-07T10:27:44.547Z,81.48
2016-12-07T10:28:44.547Z,81.38
2016-12-07T10:29:44.547Z,80.82
2016-12-07T10:30:44.539Z,80.95
2016-12-07T10:31:44.536Z,80.86
2016-12-07T10:32:44.531Z,80.38
2016-12-07T10:33:44.527Z,81.05
2016-12-07T10:34:44.531Z,80.86
2016-12-07T10:35:44.524Z,80.48
2016-12-07T10:36:44.521Z,80.19
2016-12-07T10:37:44.516Z,80.29
2016-12-07T10:38:44.512Z,79.72
2016-12-07T10:39:44.512Z,79.82
2016-12-07T10:40:44.508Z,79.63
2016-12-07T10:41:44.508Z,79.53
2016-12-07T10:42:44.500Z,79.82
2016-12-07T10:43:44.172Z,79.25
2016-12-07T10:44:44.492Z,79.25
2016-12-07T10:45:44.488Z,79.25
2016-12-07T10:46:44.484Z,79.15
2016-12-07T10:47:44.484Z,78.77
2016-12-07T10:48:44.480Z,78.96
2016-12-07T10:49:44.148Z,78.87
2016-12-07T10:50:44.476Z,78.3
2016-12-07T10:51:44.468Z,78.49
2016-12-07T10:52:44.141Z,78.39
2016-12-07T10:53:44.469Z,78.58
2016-12-07T10:54:44.761Z,78.77
2016-12-07T10:55:44.456Z,78.2
2016-12-07T10:56:44.453Z,78.2
2016-12-07T10:57:44.449Z,78.02
2016-12-07T10:58:44.445Z,77.86
2016-12-07T10:59:44.121Z,77.77
2016-12-07T11:00:44.445Z,77.58
2016-12-07T11:01:44.441Z,77.2
2016-12-07T11:02:44.433Z,76.73
2016-12-07T11:03:44.105Z,76.54
2016-12-07T11:04:44.429Z,76.34
2016-12-07T11:05:44.425Z,76.92
2016-12-07T11:06:44.421Z,76.82
2016-12-07T11:07:44.417Z,76.54
2016-12-07T11:08:44.413Z,76.54
2016-12-07T11:09:44.413Z,76.44
2016-12-07T11:10:44.409Z,76.25
2016-12-07T11:11:44.405Z,76.15
2016-12-07T11:12:44.402Z,75.87
2016-12-07T11:13:44.397Z,76.21
2016-12-07T11:14:44.398Z,76.12
2016-12-07T11:15:44.401Z,76.21
2016-12-07T11:16:44.382Z,75.93
2016-12-07T11:19:42.450Z,76.4
2016-12-07T11:20:42.446Z,76.5
2016-12-07T11:21:42.468Z,76.25
2016-12-07T11:22:42.438Z,76.25
2016-12-07T11:23:42.438Z,75.96
2016-12-07T11:24:42.110Z,75.87
2016-12-07T11:25:42.431Z,75.59
2016-12-07T11:26:42.427Z,75.87
2016-12-07T11:27:42.426Z,75.87
2016-12-07T11:28:42.427Z,75.87
2016-12-07T11:29:42.419Z,75.87
2016-12-07T11:30:42.415Z,75.59
2016-12-07T11:31:42.414Z,75.59
2016-12-07T11:32:42.411Z,75.49
2016-12-07T11:33:42.407Z,75.21
2016-12-07T11:34:42.403Z,75.21
2016-12-07T11:35:42.403Z,75.21
2016-12-07T11:36:42.399Z,75.02
2016-12-07T11:37:42.395Z,74.54
2016-12-07T11:38:42.391Z,74.54
2016-12-07T11:39:42.391Z,74.45
2016-12-07T11:40:42.391Z,74.26
2016-12-07T11:41:42.383Z,74.54
2016-12-07T11:42:42.379Z,74.64
2016-12-07T11:43:42.375Z,73.79
2016-12-07T11:44:42.379Z,73.88
2016-12-07T11:45:42.376Z,73.69
2016-12-07T11:46:48.303Z,73.6
2016-12-07T11:49:59.920Z,73.31
2016-12-07T11:50:59.589Z,73.69
2016-12-07T11:51:59.920Z,73.88
2016-12-07T11:52:59.929Z,73.79
2016-12-07T11:53:59.920Z,73.88
2016-12-07T11:55:00.068Z,73.97
2016-12-07T11:55:59.917Z,74.26
2016-12-07T11:56:59.588Z,74.07
2016-12-07T11:57:59.908Z,73.88
2016-12-07T11:58:59.912Z,73.03
2016-12-07T11:59:59.904Z,73.22
2016-12-07T12:00:59.900Z,73.12
2016-12-07T12:01:59.897Z,73.12
2016-12-07T12:02:59.900Z,72.93
2016-12-07T12:03:59.892Z,73.22
2016-12-07T12:04:59.556Z,73.12
2016-12-07T12:05:59.884Z,73.22
2016-12-07T12:06:59.889Z,72.93
2016-12-07T12:07:59.876Z,73.12
2016-12-07T12:08:59.873Z,73.03
2016-12-07T12:09:59.549Z,73.31
2016-12-07T12:10:59.548Z,73.12
2016-12-07T12:11:59.865Z,73.35
2016-12-07T12:12:59.532Z,73.25
2016-12-07T12:13:59.879Z,72.97
2016-12-07T12:14:59.529Z,72.78
2016-12-07T12:15:59.853Z,72.84
2016-12-07T12:16:59.525Z,72.93
2016-12-07T12:17:59.857Z,72.55
2016-12-07T12:18:59.845Z,72.08
2016-12-07T12:19:59.849Z,72.55
2016-12-07T12:20:59.845Z,72.17
2016-12-07T12:21:59.513Z,72.45
2016-12-07T12:22:59.837Z,72.27
2016-12-07T12:23:59.537Z,71.89
2016-12-07T12:24:59.837Z,71.98
2016-12-07T12:25:59.493Z,72.08
2016-12-07T12:26:59.829Z,71.89
2016-12-07T12:27:59.493Z,72.17
2016-12-07T12:28:59.825Z,72.36
2016-12-07T12:29:59.641Z,72.08
2016-12-07T12:30:59.819Z,72.17
2016-12-07T12:31:59.812Z,72.08
2016-12-07T12:32:59.809Z,72.17
2016-12-07T12:33:59.805Z,72.36
2016-12-07T12:34:59.801Z,72.84
2016-12-07T12:35:59.469Z,73.22
2016-12-07T12:36:59.797Z,73.22
2016-12-07T12:37:59.801Z,73.03
2016-12-07T12:38:59.793Z,72.64
2016-12-07T12:39:59.789Z,72.45
2016-12-07T12:40:59.781Z,72.55
2016-12-07T12:41:59.777Z,73.22
2016-12-07T12:42:59.785Z,72.99
2016-12-07T12:43:59.453Z,73.46
2016-12-07T12:44:59.774Z,73.08
2016-12-07T12:45:59.445Z,73.75
2016-12-07T12:46:59.766Z,73.75
2016-12-07T12:47:59.438Z,73.84
2016-12-07T12:48:59.770Z,74.03
2016-12-07T12:49:59.765Z,74.6
2016-12-07T12:50:59.758Z,74.22
2016-12-07T12:51:59.757Z,74.03
2016-12-07T12:52:59.753Z,74.03
2016-12-07T12:53:59.431Z,74.51
2016-12-07T12:54:59.745Z,74.6
2016-12-07T12:55:59.421Z,74.22
2016-12-07T12:56:59.750Z,74.54
2016-12-07T12:57:59.742Z,73.88
2016-12-07T12:58:59.741Z,74.07
2016-12-07T12:59:59.406Z,74.03